Ana Sayfa
METAR-TAF:

METAR-TAF

Havaalanları :

Evelyn Sharp Field

Ord, Nebraska, Amerika Birleşik Devletleri

Enlem: 41-37-27N, Boylam: 098-57-09W, yükseklik: 631 m

Güncel hava durumu gözlemi

Rapor saat 12:53 UTC de 19 dakika önce yapıldı.
Rüzgar batı/güneybatıdan 10 kt
Sıcaklık 22°C
Nem 83%
Basınç 1006 hPa
Görüş mesafesi: 16.1 km
Açık gökyüzü

METAR: KODX 161253Z AUTO 25010KT 10SM CLR 22/19 A2970 RMK AO2 SLP044 T02170189

Saat: 08:12 (13:12 UTC)


TAF: eksik

4.000'den fazla havaalanı için hava durumu gözlemleri ve tahminleri (METAR ve TAF raporları).

Kullanılabilir istasyonlar harita üzerinde sarı ve kırmızı noktalarla gösterilir.

İstasyonun adını görmek için fareyi noktanın üzerinde gezdirin.

Sonrasında hava gözlem ve tahminlerini görmek için tıklayın.

Haritayı değiştirmek için: yaklaştırmak için siyah artı işaretli yeşil düğmeye ve uzaklaştırmak için de eksi işaretli düğmeye hızla tıklayın; bitişik haritalar için yeşil okları kullanın.


METAR-TAF: